Time;durP1;ratioP1;P1;durP2;ratioP2;P2;SDS_P1;SDS_P2;PMS_P1;PMS_P2;Temp;Humidity;BMP_temperature;BMP_pressure;BME280_temperature;BME280_humidity;BME280_pressure;Samples;Min_cycle;Max_cycle;Signal;HPM_P1;HPM_P2
2023/11/11 07:06:10;;;;;;;37.00;15.40;;;;;;;16.70;64.01;100250.50;106319;1254;74607;-86
2023/11/11 07:08:44;;;;;;;25.50;12.60;;;;;;;16.77;63.67;100249.36;106205;1257;67137;-86
2023/11/11 07:11:25;;;;;;;41.60;15.20;;;;;;;16.87;62.93;100242.05;106802;1251;72699;-86
2023/11/11 07:14:06;;;;;;;31.20;13.20;;;;;;;16.92;62.54;100237.25;106433;1257;61348;-86
2023/11/11 07:16:40;;;;;;;26.70;12.40;;;;;;;16.74;63.41;100235.55;106341;1257;61263;-86
2023/11/11 07:19:14;;;;;;;31.10;13.40;;;;;;;16.80;63.48;100221.79;106285;1259;73405;-86
2023/11/11 07:21:54;;;;;;;41.50;14.10;;;;;;;16.89;63.12;100215.48;106988;1253;68681;-90
2023/11/11 07:24:37;;;;;;;29.90;12.30;;;;;;;16.93;63.15;100209.92;106356;1257;72746;-90
2023/11/11 07:27:11;;;;;;;32.10;13.30;;;;;;;17.08;62.63;100203.47;106452;1253;61208;-89
2023/11/11 07:29:44;;;;;;;26.90;11.60;;;;;;;17.13;62.47;100197.67;106490;1257;61302;-90
2023/11/11 07:32:24;;;;;;;32.60;12.10;;;;;;;17.16;62.18;100190.98;107315;1259;74698;-91
2023/11/11 07:35:10;;;;;;;21.20;10.10;;;;;;;17.22;62.16;100183.67;106382;1253;68483;-90
2023/11/11 07:37:47;;;;;;;27.40;11.60;;;;;;;17.16;62.73;100181.16;106351;1258;71308;-87
2023/11/11 07:40:21;;;;;;;38.60;15.70;;;;;;;17.27;62.51;100174.81;106227;1259;61200;-86
2023/11/11 07:43:01;;;;;;;34.40;14.30;;;;;;;17.20;63.08;100173.77;106782;1258;61283;-85
2023/11/11 07:45:41;;;;;;;19.40;8.70;;;;;;;17.27;63.26;100168.20;106419;1253;74636;-89
2023/11/11 07:48:15;;;;;;;33.60;13.20;;;;;;;17.43;62.63;100159.10;106351;1255;67083;-85
2023/11/11 07:50:49;;;;;;;29.70;13.00;;;;;;;17.58;62.24;100152.02;106308;1257;72661;-86
2023/11/11 07:53:30;;;;;;;28.30;11.60;;;;;;;17.82;61.32;100154.23;107865;1256;61363;-89
2023/11/11 07:56:11;;;;;;;16.80;8.50;;;;;;;17.97;60.34;100150.05;106379;1253;61280;-90
2023/11/11 07:58:38;;;;;;;23.20;9.80;;;;;;;18.07;60.01;100148.98;106392;1257;73445;-90
2023/11/11 08:01:21;;;;;;;19.90;8.80;;;;;;;18.20;59.79;100148.52;106221;1258;67470;-89
2023/11/11 08:04:01;;;;;;;14.40;7.60;;;;;;;18.05;60.33;100145.67;107071;1256;72167;-89
2023/11/11 08:06:43;;;;;;;21.10;9.00;;;;;;;17.96;60.75;100141.86;106116;1259;60414;-85
2023/11/11 08:09:10;;;;;;;13.80;7.40;;;;;;;17.98;61.23;100135.20;106551;1256;61161;-90
2023/11/11 08:11:50;;;;;;;18.20;8.70;;;;;;;17.95;61.84;100131.88;106844;1251;75998;-90
2023/11/11 08:14:26;;;;;;;16.50;8.50;;;;;;;18.07;61.19;100130.43;106414;1257;68723;-85
2023/11/11 08:17:07;;;;;;;17.80;8.00;;;;;;;18.03;61.63;100125.93;106363;1256;72641;-85
2023/11/11 08:19:46;;;;;;;15.50;7.60;;;;;;;17.91;62.92;100122.25;106305;1260;61311;-86
2023/11/11 08:22:26;;;;;;;18.40;8.20;;;;;;;17.87;63.33;100119.64;106247;1257;61270;-90
2023/11/11 08:25:06;;;;;;;15.40;8.30;;;;;;;17.81;64.14;100114.98;106491;1254;73382;-89
2023/11/11 08:27:50;;;;;;;17.00;8.30;;;;;;;17.83;64.58;100105.44;106198;1258;68337;-86
2023/11/11 08:30:31;;;;;;;22.10;10.40;;;;;;;17.75;65.62;100100.65;106457;1255;71448;-90
2023/11/11 08:33:11;;;;;;;21.60;9.60;;;;;;;17.64;67.03;100095.11;106804;1257;61324;-86
2023/11/11 08:35:51;;;;;;;22.80;10.30;;;;;;;17.64;67.90;100091.23;106258;1255;61237;-90
2023/11/11 08:38:31;;;;;;;26.90;10.10;;;;;;;17.62;68.37;100088.27;106417;1253;74636;-90
2023/11/11 08:41:16;;;;;;;19.90;9.60;;;;;;;17.57;69.63;100081.05;106227;1260;68657;-90
2023/11/11 08:44:10;;;;;;;20.90;9.00;;;;;;;17.52;70.55;100074.38;106768;1258;72476;-92
2023/11/11 08:46:49;;;;;;;27.40;11.40;;;;;;;17.53;71.36;100067.77;106130;1260;61727;-86
2023/11/11 08:49:33;;;;;;;30.60;11.40;;;;;;;17.41;72.84;100059.34;106151;1254;61192;-91
2023/11/11 08:52:13;;;;;;;20.20;9.30;;;;;;;17.24;75.08;100052.12;106153;1261;72380;-86
2023/11/11 08:54:53;;;;;;;18.00;8.30;;;;;;;17.20;75.72;100043.86;106560;1259;68427;-90
2023/11/11 08:57:35;;;;;;;22.20;9.00;;;;;;;17.13;77.38;100045.94;106347;1257;71423;-86
2023/11/11 09:00:16;;;;;;;17.20;7.80;;;;;;;17.17;77.85;100034.42;106366;1254;61283;-85
2023/11/11 09:02:56;;;;;;;17.10;8.50;;;;;;;17.20;78.23;100033.42;106160;1254;61290;-85
2023/11/11 09:05:36;;;;;;;19.20;8.20;;;;;;;17.19;78.82;100028.98;106672;1257;73403;-85
2023/11/11 09:08:16;;;;;;;18.40;8.00;;;;;;;17.14;79.62;100021.83;106285;1254;68414;-91
2023/11/11 09:10:58;;;;;;;14.60;7.30;;;;;;;17.03;81.23;100018.57;106336;1257;72780;-85
2023/11/11 09:13:39;;;;;;;14.30;7.60;;;;;;;17.04;81.56;100011.50;106248;1257;61747;-91
2023/11/11 09:16:20;;;;;;;15.50;7.80;;;;;;;16.89;83.21;99999.76;106968;1257;61255;-85
2023/11/11 09:19:00;;;;;;;16.80;7.30;;;;;;;16.68;84.94;99987.10;106334;1255;74624;-85
2023/11/11 09:21:40;;;;;;;12.70;7.50;;;;;;;16.61;86.43;99979.93;106220;1259;68345;-90
2023/11/11 09:24:20;;;;;;;12.50;6.80;;;;;;;16.69;86.46;99971.42;106222;1259;71147;-90
2023/11/11 09:27:01;;;;;;;11.70;6.60;;;;;;;16.73;86.62;99960.10;106351;1259;61370;-90
2023/11/11 09:29:44;;;;;;;14.60;7.60;;;;;;;16.79;86.71;99945.59;106936;1254;61135;-90
2023/11/11 09:32:24;;;;;;;14.50;8.00;;;;;;;16.96;85.98;99940.21;106335;1254;73773;-89
2023/11/11 09:35:04;;;;;;;11.60;6.80;;;;;;;16.97;86.24;99938.52;106051;1264;66660;-85
2023/11/11 09:37:44;;;;;;;15.20;7.90;;;;;;;17.06;86.03;99937.06;106197;1254;70410;-90
2023/11/11 09:40:24;;;;;;;15.70;8.00;;;;;;;17.16;85.75;99938.23;106915;1254;61356;-89
2023/11/11 09:43:04;;;;;;;12.00;6.90;;;;;;;17.26;85.59;99929.93;106164;1253;61335;-84
2023/11/11 09:45:45;;;;;;;19.30;10.10;;;;;;;17.10;87.34;99923.81;106131;1258;72970;-84
2023/11/11 09:48:24;;;;;;;20.00;11.30;;;;;;;16.90;89.27;99918.77;106213;1254;66279;-89
2023/11/11 09:51:06;;;;;;;21.20;10.80;;;;;;;16.93;89.78;99912.95;106400;1254;72485;-83
2023/11/11 09:53:47;;;;;;;21.60;13.10;;;;;;;16.84;90.55;99905.12;106250;1254;61170;-89
2023/11/11 09:56:27;;;;;;;18.60;9.30;;;;;;;16.72;91.81;99898.80;106258;1256;61142;-87
2023/11/11 09:59:11;;;;;;;15.50;8.20;;;;;;;16.62;92.95;99889.26;106057;1257;73383;-83
2023/11/11 10:01:52;;;;;;;21.00;9.30;;;;;;;16.57;93.88;99880.77;106107;1254;68358;-82
2023/11/11 10:04:32;;;;;;;15.50;7.70;;;;;;;16.58;94.10;99869.48;106615;1254;71523;-88
2023/11/11 10:07:12;;;;;;;15.30;6.60;;;;;;;16.49;95.00;99851.30;106120;1252;62236;-81
2023/11/11 10:09:52;;;;;;;14.70;7.10;;;;;;;16.39;96.44;99835.02;106293;1267;61611;-86
2023/11/11 10:12:32;;;;;;;13.20;6.50;;;;;;;16.35;97.54;99831.63;107516;1254;75482;-82
2023/11/11 10:15:13;;;;;;;15.40;7.00;;;;;;;16.40;97.96;99830.34;106206;1257;69866;-82
2023/11/11 10:17:54;;;;;;;23.20;10.10;;;;;;;16.48;97.74;99829.61;106235;1254;72636;-83
2023/11/11 10:20:34;;;;;;;13.70;7.50;;;;;;;16.32;99.41;99827.27;106165;1254;61875;-82
2023/11/11 10:23:18;;;;;;;16.90;7.70;;;;;;;16.30;99.97;99829.13;106802;1254;61136;-82
2023/11/11 10:25:59;;;;;;;10.40;6.50;;;;;;;16.39;99.85;99828.10;105907;1258;75748;-86
2023/11/11 10:28:39;;;;;;;11.00;6.30;;;;;;;16.38;99.84;99827.44;105725;1258;252810;-82
2023/11/11 10:31:21;;;;;;;12.50;6.10;;;;;;;16.30;100.00;99825.14;106178;1254;72661;-82
2023/11/11 10:34:02;;;;;;;13.20;7.40;;;;;;;16.31;100.00;99820.23;106770;1259;61448;-89
2023/11/11 10:36:47;;;;;;;11.70;7.20;;;;;;;16.29;100.00;99815.06;106070;1260;61155;-83
2023/11/11 10:39:26;;;;;;;14.30;7.50;;;;;;;16.33;100.00;99809.81;106190;1254;73430;-89
2023/11/11 10:42:08;;;;;;;14.50;7.90;;;;;;;16.36;100.00;99801.20;106211;1254;70493;-82
2023/11/11 10:44:49;;;;;;;14.10;7.70;;;;;;;16.44;100.00;99800.48;106201;1254;74983;-88
2023/11/11 10:47:29;;;;;;;12.80;7.90;;;;;;;16.57;99.96;99792.48;106165;1259;61249;-89
2023/11/11 10:50:09;;;;;;;15.70;8.10;;;;;;;16.70;99.23;99791.23;106195;1260;61164;-83
2023/11/11 10:52:49;;;;;;;16.40;8.40;;;;;;;16.75;98.99;99782.98;106127;1261;75128;-83
2023/11/11 10:55:29;;;;;;;14.70;7.00;;;;;;;16.74;99.32;99777.52;106373;1260;71147;-83
2023/11/11 10:58:10;;;;;;;13.00;6.50;;;;;;;16.82;98.80;99772.24;105929;1261;72710;-83
2023/11/11 11:00:54;;;;;;;11.80;6.50;;;;;;;16.90;98.32;99760.23;106237;1260;61702;-89
2023/11/11 11:03:34;;;;;;;13.10;6.80;;;;;;;16.92;98.44;99756.60;106253;1257;61557;-89
2023/11/11 11:06:34;;;;;;;13.10;5.90;;;;;;;16.91;98.62;99751.03;106621;1257;74711;-82
2023/11/11 11:09:18;;;;;;;21.90;7.70;;;;;;;16.84;99.64;99746.36;106008;1257;68572;-83
2023/11/11 11:11:56;;;;;;;22.70;8.70;;;;;;;16.92;99.18;99739.94;106169;1257;71943;-88
2023/11/11 11:14:42;;;;;;;23.10;9.60;;;;;;;16.88;99.75;99737.98;106212;1260;61428;-83
2023/11/11 11:17:10;;;;;;;16.60;7.20;;;;;;;16.95;99.61;99728.37;107258;1255;61160;-82
2023/11/11 11:19:55;;;;;;;14.40;7.40;;;;;;;17.05;98.80;99721.34;106183;1257;73741;-88
2023/11/11 11:22:24;;;;;;;12.40;5.70;;;;;;;16.88;99.89;99716.89;106060;1260;68913;-88
2023/11/11 11:24:52;;;;;;;10.90;6.10;;;;;;;16.91;100.00;99716.10;106099;1254;72727;-88
2023/11/11 11:27:29;;;;;;;10.20;4.80;;;;;;;17.04;99.85;99712.39;106359;1254;61247;-88
2023/11/11 11:30:23;;;;;;;9.10;5.60;;;;;;;17.09;99.50;99704.29;106786;1253;61424;-83
2023/11/11 11:32:51;;;;;;;9.20;5.50;;;;;;;17.15;98.92;99700.55;106248;1254;73435;-83
2023/11/11 11:35:28;;;;;;;8.60;5.90;;;;;;;17.20;98.40;99693.00;106225;1259;67139;-89
2023/11/11 11:37:56;;;;;;;9.00;5.20;;;;;;;17.16;98.73;99685.35;107087;1252;72717;-88
2023/11/11 11:40:34;;;;;;;6.50;4.90;;;;;;;17.19;98.57;99681.68;106398;1257;61658;-83
2023/11/11 11:43:29;;;;;;;8.10;4.70;;;;;;;17.13;99.00;99677.05;105979;1260;61180;-89
2023/11/11 11:46:04;;;;;;;8.30;4.70;;;;;;;17.08;99.54;99667.19;106412;1254;73005;-90
2023/11/11 11:48:39;;;;;;;9.60;5.60;;;;;;;17.20;99.03;99667.25;106444;1253;67304;-88
2023/11/11 11:51:14;;;;;;;6.30;5.00;;;;;;;17.26;98.60;99665.09;106750;1254;71387;-89
2023/11/11 11:53:42;;;;;;;6.00;5.10;;;;;;;17.38;97.38;99658.17;106305;1256;61297;-83
2023/11/11 11:56:29;;;;;;;5.60;4.10;;;;;;;17.40;97.25;99653.52;106412;1251;61272;-83
2023/11/11 11:59:03;;;;;;;5.60;3.60;;;;;;;17.35;97.75;99650.89;106247;1254;74818;-82
2023/11/11 12:01:34;;;;;;;5.80;4.60;;;;;;;17.34;98.18;99648.48;107022;1253;68422;-82
2023/11/11 12:04:07;;;;;;;5.70;3.80;;;;;;;17.38;98.01;99643.89;106403;1257;71435;-87
2023/11/11 12:06:37;;;;;;;7.70;4.40;;;;;;;17.43;98.05;99632.75;106491;1259;62414;-84
2023/11/11 12:09:15;;;;;;;6.10;4.00;;;;;;;17.23;99.51;99625.98;106229;1253;61388;-81
2023/11/11 12:11:43;;;;;;;6.70;4.30;;;;;;;17.18;100.00;99629.51;106758;1260;75992;-81
2023/11/11 12:14:17;;;;;;;7.60;4.50;;;;;;;17.12;100.00;99631.43;106532;1257;69276;-84
2023/11/11 12:16:52;;;;;;;8.30;5.10;;;;;;;17.15;100.00;99627.29;106544;1253;75706;-84
2023/11/11 12:19:25;;;;;;;8.40;5.50;;;;;;;17.24;100.00;99616.77;106381;1253;61649;-83
2023/11/11 12:21:58;;;;;;;8.60;5.10;;;;;;;17.26;100.00;99610.89;107139;1251;61354;-84
2023/11/11 12:24:31;;;;;;;8.70;5.60;;;;;;;17.19;100.00;99607.08;106229;1254;74647;-84
2023/11/11 12:26:59;;;;;;;7.50;5.70;;;;;;;17.04;100.00;99604.83;106346;1253;68411;-84
2023/11/11 12:29:43;;;;;;;6.10;4.30;;;;;;;17.07;100.00;99602.71;106297;1254;72720;-84
2023/11/11 12:32:12;;;;;;;6.50;4.30;;;;;;;17.17;100.00;99602.58;106886;1254;61338;-84
2023/11/11 12:34:40;;;;;;;7.80;5.50;;;;;;;17.14;100.00;99600.67;106582;1254;61446;-84
2023/11/11 12:37:15;;;;;;;7.20;4.80;;;;;;;17.22;100.00;99595.71;106321;1260;75199;-84
2023/11/11 12:39:53;;;;;;;8.70;4.90;;;;;;;17.23;100.00;99588.58;106328;1260;66731;-84
2023/11/11 12:42:25;;;;;;;10.50;5.80;;;;;;;17.31;100.00;99584.34;107018;1257;72639;-84
2023/11/11 12:44:53;;;;;;;9.10;5.90;;;;;;;17.38;100.00;99579.12;106346;1254;61344;-83
2023/11/11 12:47:20;;;;;;;10.90;6.10;;;;;;;17.43;100.00;99570.75;106315;1251;61147;-83
2023/11/11 12:49:53;;;;;;;8.30;4.70;;;;;;;17.43;100.00;99572.01;106436;1254;73593;-83
2023/11/11 12:52:24;;;;;;;8.20;5.40;;;;;;;17.46;100.00;99567.12;106952;1254;68337;-83
2023/11/11 12:55:00;;;;;;;8.40;4.80;;;;;;;17.49;100.00;99564.05;106644;1254;73783;-83
2023/11/11 12:57:34;;;;;;;8.50;5.70;;;;;;;17.52;100.00;99564.63;106457;1251;61334;-83
2023/11/11 13:00:07;;;;;;;8.30;4.70;;;;;;;17.41;100.00;99556.56;106586;1254;61235;-83
2023/11/11 13:02:45;;;;;;;9.40;5.20;;;;;;;17.39;100.00;99551.69;107153;1254;75886;-83
2023/11/11 13:05:17;;;;;;;8.70;5.80;;;;;;;17.41;100.00;99544.89;106455;1253;69905;-84
2023/11/11 13:08:01;;;;;;;;;;;;;;;17.46;100.00;99537.53;106512;1256;72482;-84
2023/11/11 13:10:29;;;;;;;9.40;5.90;;;;;;;17.46;100.00;99535.08;106372;1256;61259;-85
2023/11/11 13:12:58;;;;;;;8.80;6.20;;;;;;;17.36;100.00;99534.86;106760;1254;61775;-84
2023/11/11 13:15:29;;;;;;;8.30;5.20;;;;;;;17.35;100.00;99526.64;106443;1254;74855;-85
2023/11/11 13:18:03;;;;;;;10.30;6.10;;;;;;;17.34;100.00;99529.05;106305;1260;69454;-85
2023/11/11 13:20:37;;;;;;;12.80;6.20;;;;;;;17.35;100.00;99524.73;106282;1254;74584;-85
2023/11/11 13:23:08;;;;;;;10.50;5.80;;;;;;;17.34;100.00;99523.82;107064;1254;61291;-84
2023/11/11 13:25:42;;;;;;;11.10;6.90;;;;;;;17.38;100.00;99516.45;106422;1254;61185;-85
2023/11/11 13:28:14;;;;;;;12.20;6.30;;;;;;;17.40;100.00;99512.73;106351;1254;74228;-84
2023/11/11 13:30:48;;;;;;;8.60;6.10;;;;;;;17.38;100.00;99505.35;106323;1254;70617;-84
2023/11/11 13:33:22;;;;;;;11.40;7.30;;;;;;;17.37;100.00;99503.28;106552;1259;72452;-83
2023/11/11 13:35:56;;;;;;;15.30;8.50;;;;;;;17.36;100.00;99503.00;106190;1256;61629;-82
2023/11/11 13:38:30;;;;;;;12.60;7.80;;;;;;;17.55;100.00;99496.64;106194;1255;62225;-81
2023/11/11 13:41:04;;;;;;;10.40;7.20;;;;;;;17.58;100.00;99490.31;106340;1254;76757;-81
2023/11/11 13:44:03;;;;;;;11.40;6.80;;;;;;;17.49;100.00;99486.17;106610;1254;70787;-81
2023/11/11 13:46:32;;;;;;;11.60;6.90;;;;;;;17.54;100.00;99482.23;106230;1254;74669;-80
2023/11/11 13:49:00;;;;;;;9.80;6.60;;;;;;;17.55;100.00;99475.77;106291;1254;61199;-80
2023/11/11 13:51:28;;;;;;;13.70;7.20;;;;;;;17.62;100.00;99471.05;106739;1254;62366;-83
2023/11/11 13:54:02;;;;;;;11.70;7.00;;;;;;;17.64;100.00;99469.34;106131;1259;73396;-83
2023/11/11 13:56:31;;;;;;;12.50;7.10;;;;;;;17.77;100.00;99466.02;106252;1258;67298;-83
2023/11/11 13:59:04;;;;;;;10.40;6.30;;;;;;;17.86;100.00;99463.61;106260;1254;74495;-83
2023/11/11 14:01:32;;;;;;;12.90;7.00;;;;;;;18.02;100.00;99455.19;106592;1256;61430;-83
2023/11/11 14:04:06;;;;;;;12.20;8.20;;;;;;;18.08;100.00;99452.10;106211;1257;61381;-83
2023/11/11 14:06:34;;;;;;;35.70;25.60;;;;;;;18.16;100.00;99450.73;106162;1255;74655;-83
2023/11/11 14:09:10;;;;;;;26.40;16.60;;;;;;;18.09;100.00;99449.77;106317;1258;70620;-83
2023/11/11 14:11:39;;;;;;;21.80;13.60;;;;;;;18.08;100.00;99440.58;107021;1258;74426;-83
2023/11/11 14:14:06;;;;;;;17.00;11.30;;;;;;;18.07;100.00;99433.84;106296;1254;61729;-83
2023/11/11 14:16:38;;;;;;;12.90;8.60;;;;;;;18.17;100.00;99431.66;106149;1255;61280;-83
2023/11/11 14:19:13;;;;;;;12.10;8.00;;;;;;;18.23;99.76;99431.02;106298;1258;74576;-83
2023/11/11 14:21:44;;;;;;;10.80;7.80;;;;;;;18.30;99.12;99428.58;106731;1253;67889;-83
2023/11/11 14:24:16;;;;;;;13.20;9.00;;;;;;;18.29;99.09;99424.70;106421;1254;74955;-83
2023/11/11 14:26:52;;;;;;;11.40;7.40;;;;;;;18.39;98.37;99423.86;106305;1254;61632;-82
2023/11/11 14:29:26;;;;;;;12.90;8.80;;;;;;;18.38;98.27;99420.74;106743;1255;61252;-83
2023/11/11 14:31:54;;;;;;;9.60;6.00;;;;;;;18.31;99.01;99413.14;106523;1253;74932;-83
2023/11/11 14:34:27;;;;;;;10.00;6.70;;;;;;;18.15;99.83;99409.95;106529;1257;68661;-83
2023/11/11 14:37:01;;;;;;;37.00;19.00;;;;;;;18.06;100.00;99404.52;106296;1253;72708;-83
2023/11/11 14:39:28;;;;;;;34.20;20.20;;;;;;;18.08;100.00;99398.33;106403;1253;61291;-83
2023/11/11 14:41:57;;;;;;;26.30;17.60;;;;;;;18.15;100.00;99393.38;106374;1255;61255;-84
2023/11/11 14:44:27;;;;;;;17.70;12.60;;;;;;;18.03;100.00;99392.77;106818;1253;74672;-82
2023/11/11 14:46:58;;;;;;;18.80;12.10;;;;;;;18.10;100.00;99381.94;106186;1254;68351;-82
2023/11/11 14:49:31;;;;;;;15.10;9.80;;;;;;;17.97;100.00;99372.40;106491;1254;71591;-83
2023/11/11 14:52:04;;;;;;;;;;;;;;;17.75;100.00;99361.52;106243;1254;61241;-82
2023/11/11 14:54:35;;;;;;;12.30;8.80;;;;;;;17.76;100.00;99349.87;106847;1253;61323;-83
2023/11/11 14:57:12;;;;;;;14.00;9.50;;;;;;;17.98;100.00;99342.47;106389;1253;76219;-83
2023/11/11 14:59:48;;;;;;;12.50;9.30;;;;;;;17.99;100.00;99339.73;106434;1257;70201;-82
2023/11/11 15:02:18;;;;;;;15.00;10.70;;;;;;;18.10;100.00;99340.88;106750;1257;71959;-82
2023/11/11 15:04:52;;;;;;;13.70;9.60;;;;;;;18.08;100.00;99335.63;106307;1254;63806;-82
2023/11/11 15:07:33;;;;;;;12.60;8.00;;;;;;;18.08;100.00;99330.40;106491;1253;61246;-82
2023/11/11 15:10:06;;;;;;;12.30;7.50;;;;;;;18.09;100.00;99331.36;106326;1254;73792;-82
2023/11/11 15:12:40;;;;;;;13.80;7.80;;;;;;;18.30;100.00;99327.95;106696;1253;68388;-81
2023/11/11 15:15:13;;;;;;;14.90;8.20;;;;;;;18.32;100.00;99325.70;106436;1254;73775;-82
2023/11/11 15:17:46;;;;;;;16.60;8.70;;;;;;;18.35;100.00;99325.14;106344;1254;62244;-82
2023/11/11 15:20:26;;;;;;;35.00;15.70;;;;;;;18.32;100.00;99324.67;106457;1254;61542;-82
2023/11/11 15:23:09;;;;;;;24.00;11.50;;;;;;;18.36;100.00;99317.34;106631;1257;75792;-82
2023/11/11 15:25:49;;;;;;;19.30;10.00;;;;;;;18.17;100.00;99307.64;106359;1253;70525;-82
2023/11/11 15:28:30;;;;;;;22.90;11.90;;;;;;;18.11;100.00;99308.36;106378;1256;72432;-82
2023/11/11 15:30:57;;;;;;;18.90;9.50;;;;;;;18.16;100.00;99309.67;106392;1253;61342;-83
2023/11/11 15:33:31;;;;;;;15.70;9.90;;;;;;;18.24;100.00;99307.27;107045;1253;61345;-82
2023/11/11 15:36:05;;;;;;;18.80;10.10;;;;;;;18.24;100.00;99307.33;106315;1254;76691;-84
2023/11/11 15:38:39;;;;;;;18.90;10.50;;;;;;;18.26;100.00;99294.66;106481;1258;67478;-83
2023/11/11 15:41:19;;;;;;;20.00;11.20;;;;;;;18.20;100.00;99291.19;106465;1257;71372;-84
2023/11/11 15:43:53;;;;;;;16.30;9.00;;;;;;;18.25;100.00;99281.85;106907;1254;61334;-84
2023/11/11 15:46:27;;;;;;;17.50;9.00;;;;;;;18.29;100.00;99279.09;106368;1253;61301;-83
2023/11/11 15:49:08;;;;;;;18.50;10.70;;;;;;;18.36;100.00;99276.33;106347;1256;76605;-82
2023/11/11 15:51:42;;;;;;;15.30;8.90;;;;;;;18.56;100.00;99272.98;106425;1253;68725;-83
2023/11/11 15:54:10;;;;;;;21.00;11.40;;;;;;;18.60;100.00;99273.77;107687;1257;70905;-86
2023/11/11 15:56:50;;;;;;;25.40;12.20;;;;;;;18.69;100.00;99266.55;107312;1257;61375;-88
2023/11/11 15:59:30;;;;;;;22.50;11.40;;;;;;;18.84;100.00;99268.55;106839;1254;61254;-88
2023/11/11 16:02:10;;;;;;;19.80;9.90;;;;;;;19.51;99.67;99260.44;106519;1257;76252;-88
2023/11/11 16:04:38;;;;;;;25.70;10.80;;;;;;;19.33;100.00;99255.27;106907;1253;69522;-82
2023/11/11 16:07:18;;;;;;;29.50;12.70;;;;;;;19.14;100.00;99253.73;106198;1256;73513;-83
2023/11/11 16:09:58;;;;;;;16.60;8.80;;;;;;;19.04;100.00;99252.60;106124;1254;62307;-82
2023/11/11 16:12:39;;;;;;;13.60;7.90;;;;;;;18.95;100.00;99251.85;106149;1253;61580;-82
2023/11/11 16:15:19;;;;;;;11.60;6.90;;;;;;;19.00;100.00;99245.80;106654;1254;74145;-88
2023/11/11 16:17:59;;;;;;;14.10;7.40;;;;;;;19.01;100.00;99232.11;106064;1254;68376;-88
2023/11/11 16:20:39;;;;;;;14.30;7.20;;;;;;;18.69;100.00;99228.23;106107;1255;72796;-83
2023/11/11 16:23:18;;;;;;;13.50;7.10;;;;;;;18.42;100.00;99226.67;106100;1256;61268;-89
2023/11/11 16:25:58;;;;;;;13.80;8.10;;;;;;;18.11;100.00;99219.27;106914;1256;61408;-88
2023/11/11 16:28:38;;;;;;;19.00;8.70;;;;;;;17.86;100.00;99216.56;106389;1255;76052;-88
2023/11/11 16:31:25;;;;;;;18.20;9.40;;;;;;;17.88;100.00;99215.27;106020;1255;71116;-83
2023/11/11 16:34:06;;;;;;;12.20;8.40;;;;;;;18.32;100.00;99206.14;106057;1258;75028;-81
2023/11/11 16:36:45;;;;;;;23.20;11.40;;;;;;;18.72;100.00;99198.01;106120;1254;61274;-84
2023/11/11 16:39:26;;;;;;;42.30;18.80;;;;;;;18.87;100.00;99196.64;106089;1256;61304;-83
2023/11/11 16:42:06;;;;;;;29.10;13.60;;;;;;;18.74;100.00;99197.95;106264;1257;74422;-83
2023/11/11 16:44:50;;;;;;;42.70;19.50;;;;;;;18.40;100.00;99196.45;106060;1254;68894;-87
2023/11/11 16:47:30;;;;;;;21.70;13.00;;;;;;;18.56;100.00;99186.44;106824;1254;71562;-82
2023/11/11 16:50:14;;;;;;;18.40;10.60;;;;;;;18.61;100.00;99184.88;106140;1254;61402;-87
2023/11/11 16:52:54;;;;;;;14.50;8.70;;;;;;;18.67;100.00;99176.46;106123;1254;62296;-88
2023/11/11 16:55:37;;;;;;;12.90;8.00;;;;;;;18.78;100.00;99172.98;106060;1254;76101;-82
2023/11/11 16:58:11;;;;;;;16.50;8.50;;;;;;;18.73;100.00;99171.37;106859;1256;67231;-83
2023/11/11 17:00:52;;;;;;;18.00;9.10;;;;;;;18.65;100.00;99162.20;106177;1256;72736;-83
2023/11/11 17:03:33;;;;;;;11.10;7.00;;;;;;;18.67;100.00;99152.52;106124;1259;61148;-83
2023/11/11 17:06:13;;;;;;;11.30;6.60;;;;;;;18.80;100.00;99149.01;106108;1255;61141;-83
2023/11/11 17:08:53;;;;;;;11.80;7.80;;;;;;;18.69;100.00;99143.70;106937;1258;75596;-89
2023/11/11 17:11:33;;;;;;;13.50;8.90;;;;;;;18.90;100.00;99142.06;106149;1258;67106;-89
2023/11/11 17:14:13;;;;;;;16.90;8.80;;;;;;;18.99;100.00;99141.05;106109;1256;74295;-89
2023/11/11 17:16:53;;;;;;;14.90;8.90;;;;;;;18.97;100.00;99135.72;106204;1256;61198;-83
2023/11/11 17:19:33;;;;;;;14.50;8.80;;;;;;;18.75;100.00;99138.39;106448;1256;61424;-81
2023/11/11 17:22:14;;;;;;;10.20;6.50;;;;;;;18.74;100.00;99137.95;106123;1253;74655;-82
2023/11/11 17:24:54;;;;;;;6.70;5.00;;;;;;;18.70;100.00;99133.44;106049;1253;68355;-82
2023/11/11 17:27:34;;;;;;;5.30;4.30;;;;;;;18.71;100.00;99131.25;106685;1258;72657;-82
2023/11/11 17:30:16;;;;;;;7.60;4.90;;;;;;;18.78;100.00;99122.96;106108;1258;61420;-82
2023/11/11 17:32:56;;;;;;;7.90;4.80;;;;;;;18.90;100.00;99117.31;106129;1253;62008;-82
2023/11/11 17:35:36;;;;;;;6.80;4.90;;;;;;;18.83;100.00;99122.31;106174;1254;75582;-82
2023/11/11 17:38:19;;;;;;;6.60;4.30;;;;;;;18.00;100.00;99129.31;106855;1254;69576;-83
2023/11/11 17:41:00;;;;;;;5.80;3.80;;;;;;;17.87;100.00;99126.89;106209;1257;74828;-82
2023/11/11 17:43:40;;;;;;;8.90;4.40;;;;;;;17.64;100.00;99110.55;106162;1257;62392;-82
2023/11/11 17:46:27;;;;;;;7.50;4.70;;;;;;;17.45;100.00;99102.13;106368;1256;61490;-79
2023/11/11 17:49:08;;;;;;;5.60;4.20;;;;;;;17.54;100.00;99086.81;106162;1254;75081;-86
2023/11/11 17:51:48;;;;;;;8.40;4.70;;;;;;;17.63;100.00;99083.46;106297;1252;69183;-87
2023/11/11 17:54:28;;;;;;;8.50;5.10;;;;;;;17.80;100.00;99084.02;106355;1253;72693;-83
2023/11/11 17:57:09;;;;;;;13.90;6.90;;;;;;;18.03;100.00;99076.95;106966;1253;61867;-84
2023/11/11 17:59:49;;;;;;;7.90;5.30;;;;;;;17.81;100.00;99067.70;106814;1253;61309;-81
2023/11/11 18:02:29;;;;;;;8.20;6.10;;;;;;;17.84;100.00;99071.48;106551;1253;74640;-86
2023/11/11 18:05:12;;;;;;;10.80;6.00;;;;;;;17.86;100.00;99067.27;106680;1253;68418;-82
2023/11/11 18:07:51;;;;;;;8.10;6.10;;;;;;;17.83;100.00;99058.99;107041;1258;75020;-82
2023/11/11 18:10:33;;;;;;;9.50;6.40;;;;;;;17.84;100.00;99056.09;106573;1258;61792;-82
2023/11/11 18:13:14;;;;;;;10.60;6.30;;;;;;;17.77;100.00;99051.02;106249;1253;62004;-82
2023/11/11 18:15:54;;;;;;;11.60;6.60;;;;;;;17.68;100.00;99047.35;106045;1255;76062;-87
2023/11/11 18:18:34;;;;;;;10.80;7.40;;;;;;;17.86;100.00;99040.20;107005;1259;68785;-82
2023/11/11 18:21:19;;;;;;;11.70;7.70;;;;;;;17.91;100.00;99034.61;106168;1257;71858;-82
2023/11/11 18:23:59;;;;;;;11.70;7.40;;;;;;;18.02;100.00;99030.81;106015;1254;61238;-88
2023/11/11 18:26:39;;;;;;;14.70;7.90;;;;;;;18.06;100.00;99030.49;105945;1255;61157;-88
2023/11/11 18:29:19;;;;;;;11.80;7.50;;;;;;;18.13;100.00;99025.56;106667;1255;73799;-88
2023/11/11 18:32:03;;;;;;;10.20;7.30;;;;;;;18.24;100.00;99020.27;106361;1254;68405;-82
2023/11/11 18:34:43;;;;;;;11.60;7.10;;;;;;;18.29;100.00;99016.49;106016;1256;74719;-82
2023/11/11 18:37:22;;;;;;;12.40;7.70;;;;;;;18.32;100.00;99016.08;106015;1255;61370;-82
2023/11/11 18:40:03;;;;;;;11.00;6.80;;;;;;;18.43;100.00;99022.45;106584;1254;62331;-82
2023/11/11 18:42:44;;;;;;;10.90;7.20;;;;;;;18.60;100.00;99018.09;105990;1254;74245;-88
2023/11/11 18:45:24;;;;;;;11.80;7.00;;;;;;;18.70;100.00;99011.08;106146;1253;68583;-82
2023/11/11 18:48:04;;;;;;;10.20;7.20;;;;;;;18.62;100.00;99011.25;106236;1257;74928;-88
2023/11/11 18:50:44;;;;;;;9.20;6.10;;;;;;;18.63;100.00;99012.60;106723;1255;61214;-88
2023/11/11 18:53:24;;;;;;;7.80;5.70;;;;;;;18.56;100.00;99013.52;106200;1253;61157;-89
2023/11/11 18:56:04;;;;;;;8.80;5.30;;;;;;;18.54;100.00;99006.61;106199;1254;75955;-83
2023/11/11 18:58:45;;;;;;;8.20;5.50;;;;;;;18.39;100.00;99005.61;106161;1254;70317;-83
2023/11/11 19:01:25;;;;;;;9.10;5.00;;;;;;;18.52;100.00;98999.12;106647;1254;74876;-83
2023/11/11 19:04:06;;;;;;;8.00;5.30;;;;;;;18.56;100.00;98995.89;106077;1255;63313;-89